Airfield :
LOGIN :

Register | Disclaimer

   EN    FR    IT 

 










Legend :    VFR   Marginal VFR   IFR   Intensive IFR   Very Intensive IFR
Visi :
Ceiling :
>= 8 km
>= 3000ft
5 to 8 km
1000 to 3000 ft
1500m to 5 km
500 to 1000 ft
800 to 1500m
200 to 500 ft
< 800m
< 200 ft
Symbols :   Thunderstorms  Fog  Heavy snow  Heavy precipitations  Wind > 20 kt
SIGMETs :     Misc.  Thunderstorms  Icing  Turbulence  Mountain Waves  Volcanic Ashes






- Airport Elevation : 935 ft


EBFS - Florennes

CURRENT METAR :
  • 021025Z AUTO 34006KT 9999 SCT033/// BKN090/// BKN100/// 05/M03 Q1015 BLU

EXPIRED METARs :
  • 020955Z AUTO 34006KT 9999 FEW033/// BKN095/// BKN110/// 05/M03 Q1015 BLU
  • 020925Z AUTO 36006KT 9999 FEW030/// BKN095/// BKN110/// 05/M02 Q1015 BLU
  • 020855Z AUTO 01007KT 9999 FEW029/// SCT085/// BKN100/// 05/M02 Q1015 BLU
  • 020825Z AUTO 36006KT 9999 FEW080/// BKN095/// OVC110/// 04/M02 Q1015 BLU
  • 020755Z AUTO 01003KT 9999 FEW085/// SCT100/// BKN220/// 04/M01 Q1015 BLU
  • 020748Z AUTO VRB01KT 9999 FEW095/// BKN220/// 03/00 Q1015 BLU

Expired Forecast.



MET'MAP, your aeronautical weather chart ! - Copyright ORBIFLY December 2007 - Disclaimer

ORBIFLY MET'MAP TEAM :

Programming & Development : Alexandra Zaïnal
Concept & original design : Baudouin d'Aumeries
Assistance for programming : Marc-Olivier Méhu
Technical & hardware support : Manuel Goepfert

Contact : metmap@orbifly.com




SOURCES & CREDITS :

   NOAA